sensor_id;sensor_type;location;lat;lon;timestamp;P1;durP1;ratioP1;P2;durP2;ratioP2
18677;SDS011;9469;51.114;13.914;2023-07-16T00:00:24;4.43;;;3.05;;
18677;SDS011;9469;51.114;13.914;2023-07-16T00:05:34;5.00;;;3.00;;
18677;SDS011;9469;51.114;13.914;2023-07-16T00:10:41;8.38;;;2.65;;
18677;SDS011;9469;51.114;13.914;2023-07-16T00:15:46;6.50;;;2.60;;
18677;SDS011;9469;51.114;13.914;2023-07-16T00:20:55;8.73;;;3.30;;
18677;SDS011;9469;51.114;13.914;2023-07-16T00:26:02;5.50;;;3.43;;
18677;SDS011;9469;51.114;13.914;2023-07-16T00:31:07;6.27;;;3.27;;
18677;SDS011;9469;51.114;13.914;2023-07-16T00:36:17;6.00;;;3.13;;
18677;SDS011;9469;51.114;13.914;2023-07-16T00:41:22;7.60;;;3.37;;
18677;SDS011;9469;51.114;13.914;2023-07-16T00:46:28;5.90;;;2.83;;
18677;SDS011;9469;51.114;13.914;2023-07-16T00:51:36;5.93;;;3.17;;
18677;SDS011;9469;51.114;13.914;2023-07-16T00:56:42;5.57;;;3.03;;
18677;SDS011;9469;51.114;13.914;2023-07-16T01:01:48;5.27;;;3.10;;
18677;SDS011;9469;51.114;13.914;2023-07-16T01:06:58;6.47;;;2.60;;
18677;SDS011;9469;51.114;13.914;2023-07-16T01:12:10;4.77;;;2.83;;
18677;SDS011;9469;51.114;13.914;2023-07-16T01:17:17;3.03;;;2.60;;
18677;SDS011;9469;51.114;13.914;2023-07-16T01:22:32;4.90;;;2.60;;
18677;SDS011;9469;51.114;13.914;2023-07-16T01:33:35;6.23;;;2.60;;
18677;SDS011;9469;51.114;13.914;2023-07-16T01:38:46;2.33;;;2.10;;
18677;SDS011;9469;51.114;13.914;2023-07-16T01:43:52;2.47;;;2.13;;
18677;SDS011;9469;51.114;13.914;2023-07-16T01:49:00;6.97;;;2.77;;
18677;SDS011;9469;51.114;13.914;2023-07-16T01:54:06;2.93;;;2.00;;
18677;SDS011;9469;51.114;13.914;2023-07-16T01:59:11;3.90;;;1.93;;
18677;SDS011;9469;51.114;13.914;2023-07-16T02:04:19;1.60;;;1.50;;
18677;SDS011;9469;51.114;13.914;2023-07-16T02:09:25;2.10;;;1.57;;
18677;SDS011;9469;51.114;13.914;2023-07-16T02:14:30;1.77;;;1.10;;
18677;SDS011;9469;51.114;13.914;2023-07-16T02:19:39;2.10;;;1.40;;
18677;SDS011;9469;51.114;13.914;2023-07-16T02:24:44;1.97;;;1.03;;
18677;SDS011;9469;51.114;13.914;2023-07-16T02:29:51;2.33;;;1.50;;
18677;SDS011;9469;51.114;13.914;2023-07-16T02:34:59;1.60;;;1.00;;
18677;SDS011;9469;51.114;13.914;2023-07-16T02:40:06;1.13;;;0.70;;
18677;SDS011;9469;51.114;13.914;2023-07-16T02:45:23;1.53;;;1.00;;
18677;SDS011;9469;51.114;13.914;2023-07-16T02:50:32;2.23;;;1.07;;
18677;SDS011;9469;51.114;13.914;2023-07-16T02:55:39;3.13;;;1.13;;
18677;SDS011;9469;51.114;13.914;2023-07-16T03:00:44;4.17;;;1.20;;
18677;SDS011;9469;51.114;13.914;2023-07-16T03:05:52;3.53;;;1.37;;
18677;SDS011;9469;51.114;13.914;2023-07-16T03:10:58;3.63;;;1.40;;
18677;SDS011;9469;51.114;13.914;2023-07-16T03:16:06;2.90;;;1.40;;
18677;SDS011;9469;51.114;13.914;2023-07-16T03:21:14;2.20;;;1.30;;
18677;SDS011;9469;51.114;13.914;2023-07-16T03:26:20;1.63;;;0.80;;
18677;SDS011;9469;51.114;13.914;2023-07-16T03:31:25;2.27;;;1.20;;
18677;SDS011;9469;51.114;13.914;2023-07-16T03:36:37;2.73;;;1.50;;
18677;SDS011;9469;51.114;13.914;2023-07-16T03:41:44;1.60;;;1.00;;
18677;SDS011;9469;51.114;13.914;2023-07-16T03:46:49;4.40;;;1.27;;
18677;SDS011;9469;51.114;13.914;2023-07-16T03:51:57;3.97;;;1.30;;
18677;SDS011;9469;51.114;13.914;2023-07-16T03:57:04;3.67;;;1.60;;
18677;SDS011;9469;51.114;13.914;2023-07-16T04:02:11;3.60;;;1.80;;
18677;SDS011;9469;51.114;13.914;2023-07-16T04:07:19;3.13;;;1.30;;
18677;SDS011;9469;51.114;13.914;2023-07-16T04:12:26;3.20;;;1.73;;
18677;SDS011;9469;51.114;13.914;2023-07-16T04:17:34;1.60;;;1.30;;
18677;SDS011;9469;51.114;13.914;2023-07-16T04:22:42;5.73;;;1.70;;
18677;SDS011;9469;51.114;13.914;2023-07-16T04:27:47;2.80;;;1.57;;
18677;SDS011;9469;51.114;13.914;2023-07-16T04:32:53;2.10;;;1.40;;
18677;SDS011;9469;51.114;13.914;2023-07-16T04:38:01;1.87;;;1.63;;
18677;SDS011;9469;51.114;13.914;2023-07-16T04:43:07;3.10;;;1.50;;
18677;SDS011;9469;51.114;13.914;2023-07-16T04:48:12;2.00;;;1.80;;
18677;SDS011;9469;51.114;13.914;2023-07-16T04:53:21;2.80;;;1.73;;
18677;SDS011;9469;51.114;13.914;2023-07-16T04:58:26;2.20;;;1.50;;
18677;SDS011;9469;51.114;13.914;2023-07-16T05:03:33;2.37;;;2.03;;
18677;SDS011;9469;51.114;13.914;2023-07-16T05:08:40;3.33;;;1.77;;
18677;SDS011;9469;51.114;13.914;2023-07-16T05:13:49;2.27;;;1.57;;
18677;SDS011;9469;51.114;13.914;2023-07-16T05:18:54;2.40;;;1.73;;
18677;SDS011;9469;51.114;13.914;2023-07-16T05:24:02;1.77;;;1.60;;
18677;SDS011;9469;51.114;13.914;2023-07-16T05:29:09;4.40;;;1.70;;
18677;SDS011;9469;51.114;13.914;2023-07-16T05:34:14;4.80;;;1.97;;
18677;SDS011;9469;51.114;13.914;2023-07-16T05:39:22;2.27;;;1.70;;
18677;SDS011;9469;51.114;13.914;2023-07-16T05:44:28;3.97;;;1.70;;
18677;SDS011;9469;51.114;13.914;2023-07-16T05:49:33;2.57;;;1.40;;
18677;SDS011;9469;51.114;13.914;2023-07-16T05:54:43;3.50;;;2.03;;
18677;SDS011;9469;51.114;13.914;2023-07-16T05:59:53;2.23;;;1.67;;
18677;SDS011;9469;51.114;13.914;2023-07-16T06:04:59;2.33;;;1.63;;
18677;SDS011;9469;51.114;13.914;2023-07-16T06:10:13;3.40;;;1.60;;
18677;SDS011;9469;51.114;13.914;2023-07-16T06:15:21;2.13;;;1.60;;
18677;SDS011;9469;51.114;13.914;2023-07-16T06:20:27;2.00;;;1.73;;
18677;SDS011;9469;51.114;13.914;2023-07-16T06:25:42;2.03;;;1.77;;
18677;SDS011;9469;51.114;13.914;2023-07-16T06:30:55;1.70;;;1.57;;
18677;SDS011;9469;51.114;13.914;2023-07-16T06:36:06;3.53;;;1.90;;
18677;SDS011;9469;51.114;13.914;2023-07-16T06:41:20;1.80;;;1.33;;
18677;SDS011;9469;51.114;13.914;2023-07-16T06:46:34;1.63;;;1.30;;
18677;SDS011;9469;51.114;13.914;2023-07-16T06:51:42;3.73;;;1.53;;
18677;SDS011;9469;51.114;13.914;2023-07-16T06:56:54;2.53;;;1.40;;
18677;SDS011;9469;51.114;13.914;2023-07-16T07:02:03;2.63;;;1.50;;
18677;SDS011;9469;51.114;13.914;2023-07-16T07:07:11;4.25;;;1.60;;
18677;SDS011;9469;51.114;13.914;2023-07-16T07:12:22;1.63;;;1.40;;
18677;SDS011;9469;51.114;13.914;2023-07-16T07:17:30;1.52;;;1.13;;
18677;SDS011;9469;51.114;13.914;2023-07-16T07:22:39;1.70;;;1.27;;
18677;SDS011;9469;51.114;13.914;2023-07-16T07:27:48;2.90;;;1.50;;
18677;SDS011;9469;51.114;13.914;2023-07-16T07:32:54;1.67;;;1.30;;
18677;SDS011;9469;51.114;13.914;2023-07-16T07:38:01;2.53;;;1.50;;
18677;SDS011;9469;51.114;13.914;2023-07-16T07:43:09;1.80;;;1.63;;
18677;SDS011;9469;51.114;13.914;2023-07-16T07:48:15;3.25;;;1.30;;
18677;SDS011;9469;51.114;13.914;2023-07-16T07:53:22;2.50;;;1.23;;
18677;SDS011;9469;51.114;13.914;2023-07-16T07:58:34;2.45;;;1.35;;
18677;SDS011;9469;51.114;13.914;2023-07-16T08:03:41;4.07;;;1.23;;
18677;SDS011;9469;51.114;13.914;2023-07-16T08:08:46;3.47;;;1.33;;
18677;SDS011;9469;51.114;13.914;2023-07-16T08:13:55;2.40;;;1.30;;
18677;SDS011;9469;51.114;13.914;2023-07-16T08:19:00;2.72;;;1.50;;
18677;SDS011;9469;51.114;13.914;2023-07-16T08:24:06;3.47;;;1.30;;
18677;SDS011;9469;51.114;13.914;2023-07-16T08:29:19;5.35;;;1.60;;
18677;SDS011;9469;51.114;13.914;2023-07-16T08:34:28;3.22;;;1.50;;
18677;SDS011;9469;51.114;13.914;2023-07-16T08:39:35;3.45;;;1.45;;
18677;SDS011;9469;51.114;13.914;2023-07-16T08:44:43;5.35;;;2.17;;
18677;SDS011;9469;51.114;13.914;2023-07-16T08:49:54;3.72;;;1.65;;
18677;SDS011;9469;51.114;13.914;2023-07-16T08:55:03;3.08;;;1.52;;
18677;SDS011;9469;51.114;13.914;2023-07-16T09:00:16;2.33;;;1.33;;
18677;SDS011;9469;51.114;13.914;2023-07-16T09:05:24;1.50;;;1.27;;
18677;SDS011;9469;51.114;13.914;2023-07-16T09:10:40;2.97;;;1.80;;
18677;SDS011;9469;51.114;13.914;2023-07-16T09:15:58;4.65;;;2.00;;
18677;SDS011;9469;51.114;13.914;2023-07-16T09:21:04;2.75;;;1.75;;
18677;SDS011;9469;51.114;13.914;2023-07-16T09:26:09;4.10;;;1.58;;
18677;SDS011;9469;51.114;13.914;2023-07-16T09:31:19;3.75;;;1.75;;
18677;SDS011;9469;51.114;13.914;2023-07-16T09:36:27;4.07;;;1.50;;
18677;SDS011;9469;51.114;13.914;2023-07-16T09:41:32;3.58;;;1.90;;
18677;SDS011;9469;51.114;13.914;2023-07-16T09:46:44;5.10;;;1.70;;
18677;SDS011;9469;51.114;13.914;2023-07-16T09:51:50;3.20;;;1.83;;
18677;SDS011;9469;51.114;13.914;2023-07-16T09:57:04;3.17;;;1.73;;
18677;SDS011;9469;51.114;13.914;2023-07-16T10:02:15;4.38;;;2.13;;
18677;SDS011;9469;51.114;13.914;2023-07-16T10:07:25;2.20;;;1.40;;
18677;SDS011;9469;51.114;13.914;2023-07-16T10:12:31;1.55;;;1.45;;
18677;SDS011;9469;51.114;13.914;2023-07-16T10:17:49;2.15;;;1.45;;
18677;SDS011;9469;51.114;13.914;2023-07-16T10:22:57;4.47;;;1.70;;
18677;SDS011;9469;51.114;13.914;2023-07-16T10:28:16;3.00;;;1.40;;
18677;SDS011;9469;51.114;13.914;2023-07-16T10:33:24;2.97;;;1.23;;
18677;SDS011;9469;51.114;13.914;2023-07-16T10:38:30;2.45;;;1.70;;
18677;SDS011;9469;51.114;13.914;2023-07-16T10:43:45;3.67;;;1.50;;
18677;SDS011;9469;51.114;13.914;2023-07-16T10:48:58;3.28;;;1.33;;
18677;SDS011;9469;51.114;13.914;2023-07-16T10:54:04;3.65;;;1.48;;
18677;SDS011;9469;51.114;13.914;2023-07-16T10:59:10;5.38;;;1.90;;
18677;SDS011;9469;51.114;13.914;2023-07-16T11:04:21;1.55;;;1.40;;
18677;SDS011;9469;51.114;13.914;2023-07-16T11:09:27;3.50;;;1.50;;
18677;SDS011;9469;51.114;13.914;2023-07-16T11:14:33;3.75;;;1.70;;
18677;SDS011;9469;51.114;13.914;2023-07-16T11:19:44;4.65;;;2.03;;
18677;SDS011;9469;51.114;13.914;2023-07-16T11:24:50;2.55;;;1.70;;
18677;SDS011;9469;51.114;13.914;2023-07-16T11:29:59;5.55;;;1.73;;
18677;SDS011;9469;51.114;13.914;2023-07-16T11:35:14;5.15;;;2.05;;
18677;SDS011;9469;51.114;13.914;2023-07-16T11:40:21;2.42;;;1.55;;
18677;SDS011;9469;51.114;13.914;2023-07-16T11:45:27;3.55;;;1.90;;
18677;SDS011;9469;51.114;13.914;2023-07-16T11:50:35;4.85;;;1.80;;
18677;SDS011;9469;51.114;13.914;2023-07-16T11:55:41;3.92;;;1.70;;
18677;SDS011;9469;51.114;13.914;2023-07-16T12:00:46;4.40;;;2.10;;
18677;SDS011;9469;51.114;13.914;2023-07-16T12:05:58;2.90;;;1.95;;
18677;SDS011;9469;51.114;13.914;2023-07-16T12:11:03;3.47;;;1.73;;
18677;SDS011;9469;51.114;13.914;2023-07-16T12:16:09;2.13;;;1.67;;
18677;SDS011;9469;51.114;13.914;2023-07-16T12:21:17;2.03;;;1.58;;
18677;SDS011;9469;51.114;13.914;2023-07-16T12:26:22;5.55;;;2.28;;
18677;SDS011;9469;51.114;13.914;2023-07-16T12:31:29;4.75;;;1.65;;
18677;SDS011;9469;51.114;13.914;2023-07-16T12:36:37;4.18;;;2.22;;
18677;SDS011;9469;51.114;13.914;2023-07-16T12:41:43;5.30;;;2.00;;
18677;SDS011;9469;51.114;13.914;2023-07-16T12:46:52;4.60;;;1.83;;
18677;SDS011;9469;51.114;13.914;2023-07-16T12:52:01;4.45;;;1.70;;
18677;SDS011;9469;51.114;13.914;2023-07-16T12:57:08;4.85;;;1.73;;
18677;SDS011;9469;51.114;13.914;2023-07-16T13:02:15;7.22;;;2.10;;
18677;SDS011;9469;51.114;13.914;2023-07-16T13:07:23;3.97;;;2.08;;
18677;SDS011;9469;51.114;13.914;2023-07-16T13:12:30;5.03;;;2.05;;
18677;SDS011;9469;51.114;13.914;2023-07-16T13:17:35;7.32;;;2.00;;
18677;SDS011;9469;51.114;13.914;2023-07-16T13:22:45;5.50;;;2.08;;
18677;SDS011;9469;51.114;13.914;2023-07-16T13:27:50;2.58;;;1.88;;
18677;SDS011;9469;51.114;13.914;2023-07-16T13:33:04;3.90;;;1.80;;
18677;SDS011;9469;51.114;13.914;2023-07-16T13:38:13;2.97;;;1.83;;
18677;SDS011;9469;51.114;13.914;2023-07-16T13:43:22;3.35;;;1.67;;
18677;SDS011;9469;51.114;13.914;2023-07-16T13:48:30;3.33;;;2.05;;
18677;SDS011;9469;51.114;13.914;2023-07-16T13:54:02;3.50;;;1.98;;
18677;SDS011;9469;51.114;13.914;2023-07-16T13:59:08;4.90;;;1.88;;
18677;SDS011;9469;51.114;13.914;2023-07-16T14:04:13;4.50;;;1.95;;
18677;SDS011;9469;51.114;13.914;2023-07-16T14:09:21;3.92;;;1.95;;
18677;SDS011;9469;51.114;13.914;2023-07-16T14:14:28;4.10;;;2.08;;
18677;SDS011;9469;51.114;13.914;2023-07-16T14:19:34;5.15;;;2.03;;
18677;SDS011;9469;51.114;13.914;2023-07-16T14:24:43;2.05;;;1.60;;
18677;SDS011;9469;51.114;13.914;2023-07-16T14:29:52;4.95;;;1.98;;
18677;SDS011;9469;51.114;13.914;2023-07-16T14:35:07;5.10;;;1.90;;
18677;SDS011;9469;51.114;13.914;2023-07-16T14:40:36;6.80;;;2.08;;
18677;SDS011;9469;51.114;13.914;2023-07-16T14:45:45;3.63;;;2.15;;
18677;SDS011;9469;51.114;13.914;2023-07-16T14:50:51;5.20;;;1.90;;
18677;SDS011;9469;51.114;13.914;2023-07-16T14:55:59;6.22;;;2.45;;
18677;SDS011;9469;51.114;13.914;2023-07-16T15:01:05;4.90;;;1.95;;
18677;SDS011;9469;51.114;13.914;2023-07-16T15:06:11;2.80;;;1.50;;
18677;SDS011;9469;51.114;13.914;2023-07-16T15:11:20;4.60;;;1.98;;
18677;SDS011;9469;51.114;13.914;2023-07-16T15:16:26;4.93;;;2.08;;
18677;SDS011;9469;51.114;13.914;2023-07-16T15:21:31;5.35;;;1.77;;
18677;SDS011;9469;51.114;13.914;2023-07-16T15:26:42;7.15;;;2.05;;
18677;SDS011;9469;51.114;13.914;2023-07-16T15:31:48;3.72;;;1.75;;
18677;SDS011;9469;51.114;13.914;2023-07-16T15:36:54;4.10;;;1.92;;
18677;SDS011;9469;51.114;13.914;2023-07-16T15:42:03;6.18;;;2.05;;
18677;SDS011;9469;51.114;13.914;2023-07-16T15:47:12;4.85;;;2.25;;
18677;SDS011;9469;51.114;13.914;2023-07-16T15:52:20;2.67;;;1.90;;
18677;SDS011;9469;51.114;13.914;2023-07-16T15:57:40;3.17;;;1.35;;
18677;SDS011;9469;51.114;13.914;2023-07-16T16:02:46;4.05;;;1.65;;
18677;SDS011;9469;51.114;13.914;2023-07-16T16:13:28;4.40;;;1.65;;
18677;SDS011;9469;51.114;13.914;2023-07-16T16:18:34;5.18;;;1.75;;
18677;SDS011;9469;51.114;13.914;2023-07-16T16:23:43;6.00;;;1.60;;
18677;SDS011;9469;51.114;13.914;2023-07-16T16:28:52;4.88;;;2.13;;
18677;SDS011;9469;51.114;13.914;2023-07-16T16:33:57;2.90;;;1.75;;
18677;SDS011;9469;51.114;13.914;2023-07-16T16:39:05;5.47;;;1.80;;
18677;SDS011;9469;51.114;13.914;2023-07-16T16:44:19;2.22;;;1.60;;
18677;SDS011;9469;51.114;13.914;2023-07-16T16:49:29;2.58;;;1.50;;
18677;SDS011;9469;51.114;13.914;2023-07-16T16:54:35;5.85;;;2.25;;
18677;SDS011;9469;51.114;13.914;2023-07-16T16:59:43;5.07;;;2.03;;
18677;SDS011;9469;51.114;13.914;2023-07-16T17:04:49;2.83;;;1.52;;
18677;SDS011;9469;51.114;13.914;2023-07-16T17:09:59;5.82;;;2.33;;
18677;SDS011;9469;51.114;13.914;2023-07-16T17:15:09;5.97;;;2.08;;
18677;SDS011;9469;51.114;13.914;2023-07-16T17:20:15;4.10;;;1.95;;
18677;SDS011;9469;51.114;13.914;2023-07-16T17:25:25;3.75;;;1.90;;
18677;SDS011;9469;51.114;13.914;2023-07-16T17:30:35;5.63;;;2.22;;
18677;SDS011;9469;51.114;13.914;2023-07-16T17:35:40;3.35;;;1.95;;
18677;SDS011;9469;51.114;13.914;2023-07-16T17:40:48;4.70;;;2.13;;
18677;SDS011;9469;51.114;13.914;2023-07-16T17:45:58;3.30;;;2.05;;
18677;SDS011;9469;51.114;13.914;2023-07-16T17:51:04;4.55;;;2.50;;
18677;SDS011;9469;51.114;13.914;2023-07-16T17:56:11;4.80;;;2.15;;
18677;SDS011;9469;51.114;13.914;2023-07-16T18:01:22;6.15;;;2.38;;
18677;SDS011;9469;51.114;13.914;2023-07-16T18:06:33;5.30;;;2.17;;
18677;SDS011;9469;51.114;13.914;2023-07-16T18:11:39;5.35;;;2.05;;
18677;SDS011;9469;51.114;13.914;2023-07-16T18:16:48;3.95;;;2.17;;
18677;SDS011;9469;51.114;13.914;2023-07-16T18:21:55;4.28;;;2.17;;
18677;SDS011;9469;51.114;13.914;2023-07-16T18:27:21;2.80;;;2.20;;
18677;SDS011;9469;51.114;13.914;2023-07-16T18:32:30;7.70;;;2.35;;
18677;SDS011;9469;51.114;13.914;2023-07-16T18:37:38;5.22;;;2.30;;
18677;SDS011;9469;51.114;13.914;2023-07-16T18:42:43;5.35;;;2.03;;
18677;SDS011;9469;51.114;13.914;2023-07-16T18:47:55;5.43;;;2.25;;
18677;SDS011;9469;51.114;13.914;2023-07-16T18:53:00;3.17;;;2.30;;
18677;SDS011;9469;51.114;13.914;2023-07-16T18:58:08;5.60;;;2.25;;
18677;SDS011;9469;51.114;13.914;2023-07-16T19:03:19;6.03;;;2.28;;
18677;SDS011;9469;51.114;13.914;2023-07-16T19:08:25;4.10;;;2.30;;
18677;SDS011;9469;51.114;13.914;2023-07-16T19:13:40;4.43;;;2.40;;
18677;SDS011;9469;51.114;13.914;2023-07-16T19:18:50;4.28;;;2.47;;
18677;SDS011;9469;51.114;13.914;2023-07-16T19:23:57;8.20;;;3.03;;
18677;SDS011;9469;51.114;13.914;2023-07-16T19:29:07;7.50;;;2.92;;
18677;SDS011;9469;51.114;13.914;2023-07-16T19:34:20;5.05;;;2.97;;
18677;SDS011;9469;51.114;13.914;2023-07-16T19:39:26;7.20;;;2.88;;
18677;SDS011;9469;51.114;13.914;2023-07-16T19:44:32;7.85;;;2.80;;
18677;SDS011;9469;51.114;13.914;2023-07-16T19:49:43;4.45;;;2.53;;
18677;SDS011;9469;51.114;13.914;2023-07-16T19:54:49;5.85;;;3.03;;
18677;SDS011;9469;51.114;13.914;2023-07-16T19:59:56;4.85;;;2.58;;
18677;SDS011;9469;51.114;13.914;2023-07-16T20:05:16;7.63;;;3.40;;
18677;SDS011;9469;51.114;13.914;2023-07-16T20:10:24;4.40;;;2.67;;
18677;SDS011;9469;51.114;13.914;2023-07-16T20:15:29;4.22;;;2.63;;
18677;SDS011;9469;51.114;13.914;2023-07-16T20:20:40;5.43;;;2.53;;
18677;SDS011;9469;51.114;13.914;2023-07-16T20:25:47;7.28;;;3.20;;
18677;SDS011;9469;51.114;13.914;2023-07-16T20:30:55;5.03;;;2.70;;
18677;SDS011;9469;51.114;13.914;2023-07-16T20:36:03;4.53;;;2.83;;
18677;SDS011;9469;51.114;13.914;2023-07-16T20:41:09;8.43;;;3.45;;
18677;SDS011;9469;51.114;13.914;2023-07-16T20:46:14;5.63;;;3.33;;
18677;SDS011;9469;51.114;13.914;2023-07-16T20:51:25;7.03;;;3.20;;
18677;SDS011;9469;51.114;13.914;2023-07-16T20:56:32;4.13;;;3.10;;
18677;SDS011;9469;51.114;13.914;2023-07-16T21:01:37;4.63;;;3.00;;
18677;SDS011;9469;51.114;13.914;2023-07-16T21:06:46;6.03;;;2.90;;
18677;SDS011;9469;51.114;13.914;2023-07-16T21:11:53;6.50;;;3.08;;
18677;SDS011;9469;51.114;13.914;2023-07-16T21:16:59;5.25;;;3.28;;
18677;SDS011;9469;51.114;13.914;2023-07-16T21:22:10;5.47;;;2.75;;
18677;SDS011;9469;51.114;13.914;2023-07-16T21:27:22;5.63;;;3.27;;
18677;SDS011;9469;51.114;13.914;2023-07-16T21:32:30;5.90;;;2.85;;
18677;SDS011;9469;51.114;13.914;2023-07-16T21:37:42;7.83;;;3.70;;
18677;SDS011;9469;51.114;13.914;2023-07-16T21:42:57;6.77;;;3.33;;
18677;SDS011;9469;51.114;13.914;2023-07-16T21:48:12;4.77;;;3.80;;
18677;SDS011;9469;51.114;13.914;2023-07-16T21:53:20;7.90;;;3.77;;
18677;SDS011;9469;51.114;13.914;2023-07-16T21:58:29;5.83;;;3.30;;
18677;SDS011;9469;51.114;13.914;2023-07-16T22:03:35;6.10;;;3.53;;
18677;SDS011;9469;51.114;13.914;2023-07-16T22:08:43;7.07;;;3.87;;
18677;SDS011;9469;51.114;13.914;2023-07-16T22:13:51;9.17;;;4.37;;
18677;SDS011;9469;51.114;13.914;2023-07-16T22:18:56;5.50;;;3.97;;
18677;SDS011;9469;51.114;13.914;2023-07-16T22:24:11;5.70;;;3.27;;
18677;SDS011;9469;51.114;13.914;2023-07-16T22:29:17;7.37;;;3.80;;
18677;SDS011;9469;51.114;13.914;2023-07-16T22:34:22;6.73;;;3.53;;
18677;SDS011;9469;51.114;13.914;2023-07-16T22:39:31;6.60;;;4.00;;
18677;SDS011;9469;51.114;13.914;2023-07-16T22:44:36;7.17;;;3.60;;
18677;SDS011;9469;51.114;13.914;2023-07-16T22:49:45;4.53;;;3.60;;
18677;SDS011;9469;51.114;13.914;2023-07-16T22:54:53;8.83;;;3.80;;
18677;SDS011;9469;51.114;13.914;2023-07-16T22:59:59;3.83;;;3.43;;
18677;SDS011;9469;51.114;13.914;2023-07-16T23:05:07;7.53;;;3.63;;
18677;SDS011;9469;51.114;13.914;2023-07-16T23:10:17;7.37;;;3.40;;
18677;SDS011;9469;51.114;13.914;2023-07-16T23:15:23;5.90;;;3.43;;
18677;SDS011;9469;51.114;13.914;2023-07-16T23:20:28;6.47;;;3.80;;
18677;SDS011;9469;51.114;13.914;2023-07-16T23:25:37;4.50;;;3.00;;
18677;SDS011;9469;51.114;13.914;2023-07-16T23:30:42;7.70;;;3.63;;
18677;SDS011;9469;51.114;13.914;2023-07-16T23:35:48;8.10;;;3.83;;
18677;SDS011;9469;51.114;13.914;2023-07-16T23:40:56;8.33;;;3.60;;
18677;SDS011;9469;51.114;13.914;2023-07-16T23:46:05;4.67;;;3.10;;
18677;SDS011;9469;51.114;13.914;2023-07-16T23:51:10;5.67;;;3.33;;
18677;SDS011;9469;51.114;13.914;2023-07-16T23:56:20;3.97;;;3.17;;
